Time;durP1;ratioP1;P1;durP2;ratioP2;P2;SDS_P1;SDS_P2;PMS_P1;PMS_P2;Temp;Humidity;BMP_temperature;BMP_pressure;BME280_temperature;BME280_humidity;BME280_pressure;Samples;Min_cycle;Max_cycle;Signal;HPM_P1;HPM_P2
2023/06/20 00:01:13;;;;;;;15.90;13.70;;;20.40;98.00;;;;;;5035891;28;20450;-73
2023/06/20 00:03:41;;;;;;;16.00;14.30;;;20.40;98.00;;;;;;5035463;28;20473;-73
2023/06/20 00:06:10;;;;;;;16.27;14.77;;;20.40;98.10;;;;;;5035733;28;20443;-73
2023/06/20 00:08:39;;;;;;;15.60;14.10;;;20.30;98.10;;;;;;5035968;28;20553;-73
2023/06/20 00:11:07;;;;;;;17.83;15.90;;;20.30;98.20;;;;;;5035882;28;20446;-73
2023/06/20 00:13:36;;;;;;;18.23;16.47;;;20.30;98.30;;;;;;5035492;28;20473;-73
2023/06/20 00:16:05;;;;;;;17.90;16.03;;;20.30;98.50;;;;;;5035921;28;20475;-73
2023/06/20 00:18:33;;;;;;;17.40;15.73;;;20.30;98.60;;;;;;5035925;28;20494;-73
2023/06/20 00:21:01;;;;;;;18.60;16.60;;;20.30;98.70;;;;;;5036225;28;20497;-73
2023/06/20 00:23:30;;;;;;;17.67;16.07;;;20.20;98.80;;;;;;5035546;28;20447;-73
2023/06/20 00:25:59;;;;;;;17.00;15.40;;;20.20;98.90;;;;;;5035454;28;20431;-74
2023/06/20 00:28:28;;;;;;;17.33;15.70;;;20.20;99.10;;;;;;5033547;28;20500;-74
2023/06/20 00:30:57;;;;;;;19.73;17.10;;;20.10;99.10;;;;;;5033849;28;20451;-74
2023/06/20 00:33:25;;;;;;;18.70;16.90;;;20.10;99.20;;;;;;5033970;28;20538;-74
2023/06/20 00:35:53;;;;;;;18.87;17.07;;;20.10;99.30;;;;;;5033909;28;20517;-74
2023/06/20 00:38:21;;;;;;;20.97;18.77;;;20.00;99.40;;;;;;5035200;28;20505;-75
2023/06/20 00:40:49;;;;;;;20.07;18.10;;;20.00;99.60;;;;;;5036444;28;20955;-75
2023/06/20 00:43:20;;;;;;;22.23;19.53;;;20.00;99.80;;;;;;5034913;28;20450;-74
2023/06/20 00:45:49;;;;;;;21.27;19.30;;;19.90;99.90;;;;;;5034017;28;20439;-73
2023/06/20 00:48:18;;;;;;;21.70;19.80;;;19.90;99.90;;;;;;5035047;28;20748;-73
2023/06/20 00:50:46;;;;;;;20.50;18.47;;;19.90;99.90;;;;;;5037407;28;20435;-73
2023/06/20 00:53:15;;;;;;;22.47;20.17;;;19.90;99.90;;;;;;5038997;28;20889;-74
2023/06/20 00:55:43;;;;;;;21.77;19.47;;;19.80;99.90;;;;;;5039742;28;20475;-74
2023/06/20 00:58:12;;;;;;;21.67;19.47;;;19.80;99.90;;;;;;5039259;28;20454;-74
2023/06/20 01:00:41;;;;;;;22.43;20.23;;;19.80;99.90;;;;;;5038644;28;20478;-72
2023/06/20 01:03:13;;;;;;;22.17;19.97;;;19.80;99.90;;;;;;5040103;28;20419;-72
2023/06/20 01:05:44;;;;;;;22.83;20.63;;;19.80;99.90;;;;;;5037719;28;20451;-72
2023/06/20 01:08:19;;;;;;;21.13;19.03;;;19.70;99.90;;;;;;5038162;28;20471;-71
2023/06/20 01:11:00;;;;;;;23.27;20.97;;;19.70;99.90;;;;;;5037896;28;20439;-71
2023/06/20 01:13:41;;;;;;;22.20;19.93;;;19.70;99.90;;;;;;5037951;28;20508;-71
2023/06/20 01:16:23;;;;;;;22.43;20.23;;;19.70;99.90;;;;;;5037800;28;20502;-71
2023/06/20 01:19:00;;;;;;;21.83;19.73;;;19.70;99.90;;;;;;5038814;28;20494;-71
2023/06/20 01:21:34;;;;;;;20.43;18.43;;;19.70;99.90;;;;;;5039265;28;20419;-71
2023/06/20 01:24:10;;;;;;;21.40;19.27;;;19.60;99.90;;;;;;5037933;28;20450;-74
2023/06/20 01:26:48;;;;;;;22.42;20.23;;;19.60;99.90;;;;;;5038159;28;20449;-73
2023/06/20 01:29:23;;;;;;;20.90;18.77;;;19.60;99.90;;;;;;5038452;28;20224;-73
2023/06/20 01:31:55;;;;;;;21.50;19.30;;;19.60;99.90;;;;;;5038257;28;20442;-73
2023/06/20 01:34:27;;;;;;;21.03;19.13;;;19.60;99.90;;;;;;5037773;28;20482;-73
2023/06/20 01:36:58;;;;;;;22.10;19.87;;;19.60;99.90;;;;;;5038115;28;20807;-73
2023/06/20 01:39:36;;;;;;;23.37;21.17;;;19.60;99.90;;;;;;5037979;28;20533;-73
2023/06/20 01:42:05;;;;;;;24.27;20.30;;;19.60;99.90;;;;;;5038126;28;20447;-73
2023/06/20 01:44:36;;;;;;;21.00;18.80;;;19.60;99.90;;;;;;5039145;28;20450;-73
2023/06/20 01:47:06;;;;;;;20.43;18.43;;;19.50;99.90;;;;;;5038221;28;20442;-73
2023/06/20 01:49:35;;;;;;;20.60;18.60;;;19.50;99.90;;;;;;5040381;28;20427;-73
2023/06/20 01:52:05;;;;;;;19.70;17.70;;;19.50;99.90;;;;;;5039039;28;20454;-73
2023/06/20 01:54:36;;;;;;;20.33;18.33;;;19.50;99.90;;;;;;5038174;28;20470;-73
2023/06/20 01:57:06;;;;;;;19.30;17.23;;;19.50;99.90;;;;;;5039448;28;20526;-73
2023/06/20 01:59:36;;;;;;;21.27;19.17;;;19.50;99.90;;;;;;5037091;28;20823;-73
2023/06/20 02:02:06;;;;;;;20.00;17.97;;;19.50;99.90;;;;;;5034617;28;20474;-73
2023/06/20 02:04:35;;;;;;;19.13;17.23;;;19.40;99.90;;;;;;5035048;28;20450;-73
2023/06/20 02:07:10;;;;;;;19.07;17.13;;;19.40;99.90;;;;;;5035355;28;20443;-73
2023/06/20 02:09:42;;;;;;;18.23;16.43;;;19.40;99.90;;;;;;5035158;28;20440;-73
2023/06/20 02:12:11;;;;;;;17.53;15.83;;;19.40;99.90;;;;;;5035714;28;20435;-73
2023/06/20 02:14:40;;;;;;;19.47;17.67;;;19.40;99.90;;;;;;5035476;28;20470;-73
2023/06/20 02:17:12;;;;;;;18.33;16.53;;;19.30;99.90;;;;;;5035866;28;20454;-73
2023/06/20 02:19:41;;;;;;;18.93;16.93;;;19.30;99.90;;;;;;5036296;28;20493;-73
2023/06/20 02:22:12;;;;;;;18.50;16.50;;;19.30;99.90;;;;;;5037497;28;20530;-73
2023/06/20 02:24:44;;;;;;;16.33;14.70;;;19.30;99.90;;;;;;5037878;28;20510;-73
2023/06/20 02:27:16;;;;;;;17.03;15.43;;;19.30;99.90;;;;;;5037403;28;20451;-73
2023/06/20 02:29:46;;;;;;;17.13;15.53;;;19.30;99.90;;;;;;5037187;28;20486;-73
2023/06/20 02:32:17;;;;;;;16.77;15.00;;;19.20;99.90;;;;;;5037667;28;20795;-73
2023/06/20 02:34:48;;;;;;;18.17;16.37;;;19.20;99.90;;;;;;5037884;28;20477;-73
2023/06/20 02:37:16;;;;;;;16.30;14.60;;;19.20;99.90;;;;;;5036981;28;20442;-73
2023/06/20 02:39:47;;;;;;;19.20;17.20;;;19.20;99.90;;;;;;5035763;28;20443;-74
2023/06/20 02:42:17;;;;;;;17.93;16.33;;;19.20;99.90;;;;;;5038596;28;20916;-73
2023/06/20 02:44:45;;;;;;;19.13;17.23;;;19.10;99.90;;;;;;5035053;28;20450;-73
2023/06/20 02:47:24;;;;;;;18.27;16.47;;;19.10;99.90;;;;;;5035114;28;20457;-73
2023/06/20 02:50:06;;;;;;;18.07;16.37;;;19.10;99.90;;;;;;5036568;28;20482;-73
2023/06/20 02:52:45;;;;;;;17.93;16.23;;;19.10;99.90;;;;;;5034972;28;20443;-73
2023/06/20 02:55:21;;;;;;;18.80;16.80;;;19.10;99.90;;;;;;5036203;28;20911;-73
2023/06/20 02:57:55;;;;;;;18.50;16.70;;;19.00;99.90;;;;;;5034601;28;20477;-73
2023/06/20 03:00:25;;;;;;;19.77;17.90;;;19.00;99.90;;;;;;5036104;28;20493;-73
2023/06/20 03:03:00;;;;;;;19.87;17.97;;;19.00;99.90;;;;;;5035057;28;20446;-73
2023/06/20 03:05:31;;;;;;;19.43;17.60;;;19.00;99.90;;;;;;5034582;28;20449;-73
2023/06/20 03:07:59;;;;;;;20.63;18.53;;;19.00;99.90;;;;;;5036785;28;20482;-73
2023/06/20 03:10:31;;;;;;;20.70;18.67;;;19.00;99.90;;;;;;5035142;28;20534;-73
2023/06/20 03:13:00;;;;;;;20.43;18.40;;;19.00;99.90;;;;;;5034176;28;20447;-73
2023/06/20 03:15:29;;;;;;;19.37;17.53;;;18.90;99.90;;;;;;5035367;28;20489;-72
2023/06/20 03:18:00;;;;;;;20.23;17.70;;;18.90;99.90;;;;;;5034790;28;21007;-72
2023/06/20 03:20:29;;;;;;;18.87;17.10;;;18.90;99.90;;;;;;5035082;28;20451;-71
2023/06/20 03:22:58;;;;;;;20.50;18.43;;;18.90;99.90;;;;;;5035160;28;20447;-71
2023/06/20 03:25:28;;;;;;;20.70;18.70;;;18.90;99.90;;;;;;5035011;28;21044;-71
2023/06/20 03:27:57;;;;;;;21.93;18.60;;;18.90;99.90;;;;;;5036046;28;20463;-71
2023/06/20 03:30:26;;;;;;;20.77;18.60;;;18.80;99.90;;;;;;5034508;28;20467;-71
2023/06/20 03:32:56;;;;;;;20.27;18.20;;;18.80;99.90;;;;;;5034723;28;20475;-71
2023/06/20 03:35:24;;;;;;;19.53;17.53;;;18.80;99.90;;;;;;5034515;28;20470;-72
2023/06/20 03:37:53;;;;;;;20.77;18.70;;;18.80;99.90;;;;;;5033137;28;20553;-72
2023/06/20 03:40:21;;;;;;;20.23;18.10;;;18.80;99.90;;;;;;5034619;28;20462;-72
2023/06/20 03:42:51;;;;;;;19.50;17.60;;;18.80;99.90;;;;;;5033536;28;20447;-71
2023/06/20 03:45:22;;;;;;;19.83;17.93;;;18.80;99.90;;;;;;5034856;28;21034;-71
2023/06/20 03:47:51;;;;;;;19.80;17.80;;;18.80;99.90;;;;;;5033210;28;20473;-71
2023/06/20 03:50:21;;;;;;;18.17;16.33;;;18.80;99.90;;;;;;5034900;28;20816;-71
2023/06/20 03:52:49;;;;;;;19.50;17.20;;;18.80;99.90;;;;;;5034102;28;20796;-71
2023/06/20 03:55:17;;;;;;;20.93;18.90;;;18.80;99.90;;;;;;5034470;28;20451;-71
2023/06/20 03:57:47;;;;;;;19.33;17.50;;;18.80;99.90;;;;;;5034007;28;20463;-71
2023/06/20 04:00:16;;;;;;;18.97;17.27;;;18.80;99.90;;;;;;5034839;28;20882;-71
2023/06/20 04:02:46;;;;;;;21.27;18.93;;;18.80;99.90;;;;;;5034620;28;20447;-71
2023/06/20 04:05:15;;;;;;;18.80;17.07;;;18.80;99.90;;;;;;5034578;28;20447;-71
2023/06/20 04:07:43;;;;;;;20.27;18.37;;;18.80;99.90;;;;;;5036256;28;20454;-71
2023/06/20 04:10:12;;;;;;;19.43;17.40;;;18.80;99.90;;;;;;5035016;28;20450;-71
2023/06/20 04:12:41;;;;;;;20.33;18.23;;;18.80;99.90;;;;;;5036758;28;20442;-71
2023/06/20 04:15:10;;;;;;;21.50;19.33;;;18.80;99.90;;;;;;5035043;28;20458;-71
2023/06/20 04:17:40;;;;;;;19.97;18.07;;;18.80;99.90;;;;;;5035571;28;20478;-71
2023/06/20 04:20:12;;;;;;;19.23;17.43;;;18.80;99.90;;;;;;5036241;28;20419;-72
2023/06/20 04:22:44;;;;;;;20.57;18.50;;;18.80;99.90;;;;;;5034449;28;20446;-71
2023/06/20 04:25:12;;;;;;;20.13;18.20;;;18.80;99.90;;;;;;5037756;28;20451;-71
2023/06/20 04:27:41;;;;;;;20.30;18.10;;;18.90;99.90;;;;;;5038915;28;20807;-71
2023/06/20 04:30:10;;;;;;;21.37;19.37;;;18.90;99.90;;;;;;5038786;28;20462;-71
2023/06/20 04:32:41;;;;;;;21.30;19.20;;;18.90;99.90;;;;;;5038609;28;20469;-71
2023/06/20 04:35:11;;;;;;;20.13;18.13;;;18.90;99.90;;;;;;5038722;28;20439;-72
2023/06/20 04:37:41;;;;;;;21.40;19.30;;;19.00;99.90;;;;;;5038119;28;20488;-71
2023/06/20 04:40:12;;;;;;;19.77;17.77;;;19.00;99.90;;;;;;5039507;28;20434;-71
2023/06/20 04:42:40;;;;;;;19.67;17.87;;;19.00;99.90;;;;;;5037854;28;20447;-71
2023/06/20 04:45:09;;;;;;;19.10;17.20;;;19.00;99.90;;;;;;5037435;28;20810;-71
2023/06/20 04:47:38;;;;;;;19.57;17.67;;;19.00;99.90;;;;;;5036325;28;20469;-71
2023/06/20 04:50:09;;;;;;;19.43;17.63;;;19.00;99.90;;;;;;5036770;28;20445;-71
2023/06/20 04:52:39;;;;;;;21.10;19.03;;;19.10;99.90;;;;;;5037572;28;20447;-71
2023/06/20 04:55:08;;;;;;;20.57;18.47;;;19.10;99.90;;;;;;5037683;28;20951;-71
2023/06/20 04:57:36;;;;;;;20.97;18.67;;;19.10;99.90;;;;;;5037613;28;20491;-71
2023/06/20 05:00:07;;;;;;;20.57;18.50;;;19.10;99.90;;;;;;5038578;28;20971;-71
2023/06/20 05:02:41;;;;;;;23.47;18.43;;;19.20;99.90;;;;;;5038035;28;20451;-71
2023/06/20 05:05:10;;;;;;;20.00;18.00;;;19.20;99.90;;;;;;5038263;28;20419;-72
2023/06/20 05:07:42;;;;;;;18.70;16.90;;;19.20;99.90;;;;;;5040692;28;20462;-73
2023/06/20 05:10:11;;;;;;;19.53;17.60;;;19.20;99.90;;;;;;5037012;28;20458;-72
2023/06/20 05:12:39;;;;;;;20.77;18.87;;;19.20;99.90;;;;;;5038472;28;20489;-72
2023/06/20 05:15:08;;;;;;;18.60;16.63;;;19.20;99.90;;;;;;5039171;28;20502;-72
2023/06/20 05:17:36;;;;;;;21.43;19.50;;;19.30;99.90;;;;;;5038677;28;20488;-72
2023/06/20 05:20:06;;;;;;;19.97;18.00;;;19.30;99.90;;;;;;5039208;28;20447;-72
2023/06/20 05:22:35;;;;;;;22.93;20.73;;;19.30;99.90;;;;;;5039638;28;20442;-72
2023/06/20 05:25:05;;;;;;;20.57;18.50;;;19.30;99.90;;;;;;5039627;28;20469;-72
2023/06/20 05:27:33;;;;;;;20.67;18.60;;;19.40;99.90;;;;;;5040335;28;20804;-72
2023/06/20 05:30:01;;;;;;;20.23;18.23;;;19.40;99.90;;;;;;5038611;28;20526;-73
2023/06/20 05:32:30;;;;;;;19.87;17.87;;;19.40;99.90;;;;;;5039892;28;20792;-73
2023/06/20 05:34:58;;;;;;;19.63;17.60;;;19.50;99.90;;;;;;5039165;28;20501;-73
2023/06/20 05:37:28;;;;;;;20.00;17.53;;;19.50;99.90;;;;;;5038639;28;20514;-73
2023/06/20 05:39:57;;;;;;;19.40;17.50;;;19.50;99.90;;;;;;5039204;28;20422;-72
2023/06/20 05:42:29;;;;;;;19.53;17.67;;;19.60;99.90;;;;;;5039936;28;20451;-73
2023/06/20 05:44:57;;;;;;;19.23;17.50;;;19.60;99.90;;;;;;5039415;28;20435;-73
2023/06/20 05:47:25;;;;;;;18.77;17.00;;;19.70;99.90;;;;;;5039520;28;20538;-73
2023/06/20 05:49:57;;;;;;;19.07;17.17;;;19.70;99.90;;;;;;5040198;28;21010;-73
2023/06/20 05:52:25;;;;;;;19.10;17.30;;;19.80;99.90;;;;;;5038652;28;20620;-78
2023/06/20 05:54:54;;;;;;;18.33;16.60;;;19.80;99.90;;;;;;5039840;28;20796;-77
2023/06/20 05:57:22;;;;;;;20.63;18.23;;;19.90;99.90;;;;;;5044993;28;20463;-78
2023/06/20 05:59:52;;;;;;;22.90;18.37;;;20.00;99.90;;;;;;5036514;28;20497;-78
2023/06/20 06:02:21;;;;;;;19.20;17.40;;;20.10;99.90;;;;;;5037965;28;20530;-78
2023/06/20 06:04:50;;;;;;;18.40;16.70;;;20.20;99.90;;;;;;5037739;28;20463;-78
2023/06/20 06:07:18;;;;;;;18.20;16.47;;;20.40;99.90;;;;;;5039519;28;20439;-79
2023/06/20 06:09:47;;;;;;;17.73;15.83;;;20.60;99.90;;;;;;5038839;28;20478;-79
2023/06/20 06:12:15;;;;;;;18.27;16.47;;;20.80;99.90;;;;;;5039424;28;20837;-78
2023/06/20 06:14:43;;;;;;;18.33;16.30;;;20.90;99.90;;;;;;5039321;28;20450;-79
2023/06/20 06:17:13;;;;;;;17.57;15.87;;;21.10;99.90;;;;;;5039637;28;21070;-79
2023/06/20 06:19:41;;;;;;;17.20;15.50;;;21.10;99.90;;;;;;5039602;28;20474;-78
2023/06/20 06:22:09;;;;;;;18.40;16.60;;;21.30;99.90;;;;;;5038022;28;20461;-79
2023/06/20 06:24:38;;;;;;;15.97;14.37;;;21.50;99.90;;;;;;5037860;28;20475;-79
2023/06/20 06:27:07;;;;;;;17.43;15.73;;;21.60;99.90;;;;;;5038959;28;20444;-79
2023/06/20 06:29:35;;;;;;;15.40;13.80;;;21.90;99.90;;;;;;5054654;28;20541;-78
2023/06/20 06:32:04;;;;;;;18.17;13.90;;;22.00;99.90;;;;;;5039522;28;20443;-78
2023/06/20 06:34:34;;;;;;;15.67;14.13;;;22.10;99.90;;;;;;5036537;28;21063;-77
2023/06/20 06:37:03;;;;;;;15.67;14.07;;;22.30;99.90;;;;;;5037179;28;20545;-78
2023/06/20 06:39:32;;;;;;;15.47;12.80;;;22.40;99.90;;;;;;5036331;28;20528;-78
2023/06/20 06:42:00;;;;;;;20.70;15.43;;;22.50;99.90;;;;;;5043584;28;20552;-78
2023/06/20 06:44:30;;;;;;;14.73;13.23;;;22.60;99.90;;;;;;5039686;28;20447;-79
2023/06/20 06:47:00;;;;;;;14.47;12.93;;;22.70;99.90;;;;;;5045344;28;20451;-79
2023/06/20 06:49:31;;;;;;;15.27;13.60;;;22.80;99.90;;;;;;5041808;28;20462;-78
2023/06/20 06:52:01;;;;;;;18.53;14.37;;;22.80;99.90;;;;;;5042801;28;20458;-78
2023/06/20 06:54:30;;;;;;;15.20;12.77;;;22.70;99.90;;;;;;5039316;28;20450;-78
2023/06/20 06:56:58;;;;;;;17.33;14.00;;;22.70;99.90;;;;;;5037137;28;20475;-78
2023/06/20 06:59:26;;;;;;;17.90;14.40;;;22.70;99.90;;;;;;5038310;28;20459;-78
2023/06/20 07:01:54;;;;;;;14.70;13.30;;;22.70;99.90;;;;;;5042132;28;20447;-79
2023/06/20 07:04:24;;;;;;;14.77;13.17;;;22.70;99.90;;;;;;5044884;28;20443;-79
2023/06/20 07:06:52;;;;;;;17.23;14.67;;;22.60;99.90;;;;;;5047911;28;20469;-79
2023/06/20 07:09:21;;;;;;;14.03;12.73;;;22.60;99.90;;;;;;5042290;28;20499;-80
2023/06/20 07:11:50;;;;;;;19.30;16.37;;;22.60;99.90;;;;;;5043264;28;20454;-80
2023/06/20 07:14:22;;;;;;;16.80;15.10;;;22.60;99.90;;;;;;5044660;28;20514;-79
2023/06/20 07:16:52;;;;;;;17.80;15.97;;;22.60;99.90;;;;;;5049669;28;20429;-78
2023/06/20 07:19:32;;;;;;;16.40;14.70;;;22.60;99.90;;;;;;5050915;28;20463;-80
2023/06/20 07:22:02;;;;;;;20.30;14.77;;;22.60;99.90;;;;;;5051150;28;20435;-81
2023/06/20 07:24:32;;;;;;;17.23;15.60;;;22.60;99.90;;;;;;5048826;28;20507;-79
2023/06/20 07:27:02;;;;;;;17.50;15.70;;;22.60;99.90;;;;;;5050672;28;20518;-80
2023/06/20 07:29:30;;;;;;;15.67;14.07;;;22.60;99.90;;;;;;5052414;28;20471;-79
2023/06/20 07:31:58;;;;;;;18.73;14.70;;;22.60;99.90;;;;;;5052932;28;20438;-80
2023/06/20 07:34:27;;;;;;;17.37;15.23;;;22.60;99.90;;;;;;5044065;28;20451;-81
2023/06/20 07:36:55;;;;;;;15.50;14.00;;;22.60;99.90;;;;;;5042393;28;20443;-79
2023/06/20 07:39:23;;;;;;;15.90;14.30;;;22.70;99.90;;;;;;5044547;28;20475;-81
2023/06/20 07:41:52;;;;;;;16.40;14.90;;;22.70;99.90;;;;;;5044852;28;20443;-79
2023/06/20 07:44:21;;;;;;;17.00;15.40;;;22.60;99.90;;;;;;5043611;28;20447;-79
2023/06/20 07:46:49;;;;;;;19.60;17.60;;;22.60;99.90;;;;;;5045907;28;20451;-79
2023/06/20 07:49:17;;;;;;;18.80;17.10;;;22.60;99.90;;;;;;5049358;28;20835;-80
2023/06/20 07:51:46;;;;;;;16.97;15.33;;;22.60;99.90;;;;;;5047843;28;20526;-80
2023/06/20 07:54:15;;;;;;;16.53;15.03;;;22.60;99.90;;;;;;5049523;28;20435;-79
2023/06/20 07:56:43;;;;;;;16.80;15.10;;;22.50;99.90;;;;;;5051570;28;20469;-79
2023/06/20 07:59:13;;;;;;;18.13;16.50;;;22.50;99.90;;;;;;5048184;28;20470;-79
2023/06/20 08:01:41;;;;;;;19.20;17.17;;;22.50;99.90;;;;;;5051814;28;20467;-78
2023/06/20 08:04:09;;;;;;;19.67;17.77;;;22.50;99.90;;;;;;5051622;28;20454;-77
2023/06/20 08:06:38;;;;;;;21.40;19.50;;;22.50;99.90;;;;;;5049659;28;20442;-76
2023/06/20 08:09:06;;;;;;;21.33;19.43;;;22.50;99.90;;;;;;5050434;28;21054;-76
2023/06/20 08:11:35;;;;;;;23.43;21.00;;;22.50;99.90;;;;;;5052502;28;20427;-76
2023/06/20 08:14:03;;;;;;;24.07;21.50;;;22.50;99.90;;;;;;5053477;28;20442;-76
2023/06/20 08:16:33;;;;;;;22.37;20.20;;;22.40;99.90;;;;;;5052272;28;20430;-76
2023/06/20 08:19:01;;;;;;;28.33;23.30;;;22.40;99.90;;;;;;5050421;28;20505;-76
2023/06/20 08:21:29;;;;;;;22.77;20.53;;;22.30;99.90;;;;;;5049093;28;20576;-76
2023/06/20 08:23:57;;;;;;;26.80;20.93;;;22.30;99.90;;;;;;5032872;28;20512;-75
2023/06/20 08:26:26;;;;;;;25.60;22.93;;;22.30;99.90;;;;;;5033278;28;20438;-77
2023/06/20 08:28:54;;;;;;;24.93;22.50;;;22.20;99.90;;;;;;5031766;28;20508;-77
2023/06/20 08:31:22;;;;;;;23.43;21.30;;;22.20;99.90;;;;;;5032092;28;20438;-77
2023/06/20 08:33:52;;;;;;;24.23;21.83;;;22.20;99.90;;;;;;5032500;28;20577;-77
2023/06/20 08:36:21;;;;;;;23.43;21.13;;;22.20;99.90;;;;;;5034742;28;20435;-77
2023/06/20 08:38:51;;;;;;;23.10;20.90;;;22.20;99.90;;;;;;5039605;28;20486;-76
2023/06/20 08:41:22;;;;;;;25.90;23.30;;;22.20;99.90;;;;;;5041838;28;20430;-78
2023/06/20 08:43:50;;;;;;;23.90;21.60;;;22.20;99.90;;;;;;5058119;28;20955;-77
2023/06/20 08:46:20;;;;;;;22.80;20.70;;;22.20;99.90;;;;;;5041813;28;20451;-77
2023/06/20 08:48:48;;;;;;;24.73;22.33;;;22.20;99.90;;;;;;5043242;28;20461;-77
2023/06/20 08:51:23;;;;;;;24.43;22.13;;;22.20;99.90;;;;;;5041685;28;20419;-77
2023/06/20 08:53:54;;;;;;;26.00;23.50;;;22.20;99.90;;;;;;5040391;28;20510;-77
2023/06/20 08:56:24;;;;;;;24.50;22.30;;;22.20;99.90;;;;;;5042824;28;20415;-75
2023/06/20 08:58:52;;;;;;;26.47;24.13;;;22.20;99.90;;;;;;5038761;28;20513;-74
2023/06/20 09:01:20;;;;;;;23.87;21.60;;;22.20;99.90;;;;;;5037819;28;20435;-76
2023/06/20 09:03:51;;;;;;;27.03;24.43;;;22.30;99.90;;;;;;5038323;28;20885;-74
2023/06/20 09:06:32;;;;;;;25.90;23.60;;;22.30;99.90;;;;;;5034214;28;20415;-74
2023/06/20 09:09:00;;;;;;;22.40;20.40;;;22.40;99.90;;;;;;5034639;28;20462;-74
2023/06/20 09:11:29;;;;;;;24.30;22.10;;;22.40;99.90;;;;;;5035352;28;20869;-75
2023/06/20 09:14:00;;;;;;;25.47;21.43;;;22.40;99.90;;;;;;5037579;28;20537;-74
2023/06/20 09:16:29;;;;;;;22.63;20.27;;;22.50;99.90;;;;;;5037425;28;20470;-75
2023/06/20 09:19:01;;;;;;;25.03;22.73;;;22.50;99.90;;;;;;5037190;28;20471;-75
2023/06/20 09:21:32;;;;;;;24.20;21.80;;;22.50;99.90;;;;;;5037726;28;20430;-75
2023/06/20 09:24:04;;;;;;;21.83;19.83;;;22.50;99.90;;;;;;5037880;28;20423;-74
2023/06/20 09:26:33;;;;;;;24.40;22.23;;;22.50;99.90;;;;;;5037478;28;20419;-75
2023/06/20 09:29:09;;;;;;;25.33;23.03;;;22.50;99.90;;;;;;5039713;28;20509;-75
2023/06/20 09:31:42;;;;;;;23.17;20.90;;;22.50;99.90;;;;;;5041688;28;20545;-75
2023/06/20 09:34:12;;;;;;;24.90;22.77;;;22.60;99.90;;;;;;5040970;28;20439;-74
2023/06/20 09:36:43;;;;;;;24.83;22.57;;;22.60;99.90;;;;;;5040266;28;20526;-75
2023/06/20 09:39:13;;;;;;;24.47;22.17;;;22.60;99.90;;;;;;5035441;28;20815;-74
2023/06/20 09:41:45;;;;;;;24.70;22.60;;;22.60;99.90;;;;;;5037593;28;20443;-75
2023/06/20 09:44:14;;;;;;;23.73;21.63;;;22.60;99.90;;;;;;5037033;28;20863;-74
2023/06/20 09:46:42;;;;;;;24.47;22.13;;;22.60;99.90;;;;;;5037298;28;20461;-74
2023/06/20 09:49:13;;;;;;;29.17;26.57;;;22.60;99.90;;;;;;5036638;28;20458;-74
2023/06/20 09:51:48;;;;;;;26.23;23.87;;;22.60;99.90;;;;;;5040226;28;20537;-75
2023/06/20 09:54:23;;;;;;;24.97;22.67;;;22.60;99.90;;;;;;5040874;28;20473;-75
2023/06/20 09:56:56;;;;;;;26.60;24.37;;;22.70;99.90;;;;;;5041446;28;20493;-74
2023/06/20 09:59:28;;;;;;;25.77;23.43;;;22.70;99.90;;;;;;5038700;28;20569;-75
2023/06/20 10:01:58;;;;;;;27.27;24.67;;;22.70;99.90;;;;;;5038148;28;20905;-75
2023/06/20 10:04:27;;;;;;;27.30;24.97;;;22.70;99.90;;;;;;5037842;28;20423;-75
2023/06/20 10:06:58;;;;;;;26.63;24.33;;;22.80;99.90;;;;;;5037491;28;20430;-75
2023/06/20 10:09:26;;;;;;;27.70;25.30;;;22.80;99.90;;;;;;5036063;28;20520;-75
2023/06/20 10:11:54;;;;;;;26.77;24.27;;;22.90;99.90;;;;;;5037512;28;20430;-75
2023/06/20 10:14:23;;;;;;;27.00;24.70;;;22.90;99.90;;;;;;5038069;28;20533;-75
2023/06/20 10:16:52;;;;;;;24.97;22.67;;;23.00;99.90;;;;;;5036737;28;20535;-75
2023/06/20 10:19:20;;;;;;;24.60;22.50;;;23.00;99.90;;;;;;5038723;28;20470;-74
2023/06/20 10:22:01;;;;;;;25.67;23.47;;;23.10;99.90;;;;;;5038076;28;20428;-74
2023/06/20 10:24:49;;;;;;;24.60;22.30;;;23.20;99.90;;;;;;5037955;28;20573;-74
2023/06/20 10:27:24;;;;;;;22.63;20.27;;;23.30;99.90;;;;;;5037796;28;20419;-75
2023/06/20 10:29:56;;;;;;;20.20;18.40;;;23.40;99.90;;;;;;5036893;28;20454;-75
2023/06/20 10:32:24;;;;;;;28.30;20.37;;;23.40;99.90;;;;;;5037292;28;20435;-75
2023/06/20 10:34:53;;;;;;;19.77;18.10;;;23.50;99.90;;;;;;5035394;28;20458;-75
2023/06/20 10:37:39;;;;;;;20.07;18.37;;;23.50;99.90;;;;;;5037074;28;20431;-74
2023/06/20 10:40:09;;;;;;;19.07;17.47;;;23.60;99.90;;;;;;5037551;28;20450;-75
2023/06/20 10:42:39;;;;;;;19.63;17.93;;;23.70;99.90;;;;;;5036291;28;20431;-74
2023/06/20 10:45:18;;;;;;;22.20;19.73;;;23.70;99.90;;;;;;5037296;28;20539;-74
2023/06/20 10:47:46;;;;;;;20.37;18.47;;;23.80;99.90;;;;;;5037788;28;20524;-75
2023/06/20 10:50:15;;;;;;;19.20;17.60;;;23.90;99.90;;;;;;5037289;28;21008;-75
2023/06/20 10:52:45;;;;;;;18.43;16.50;;;23.90;99.90;;;;;;5037975;28;20431;-75
2023/06/20 10:55:17;;;;;;;18.80;17.20;;;23.90;99.90;;;;;;5038187;28;20461;-75
2023/06/20 10:57:46;;;;;;;19.73;17.93;;;23.90;99.90;;;;;;5036541;28;20516;-75
2023/06/20 11:00:17;;;;;;;16.70;15.03;;;24.00;99.90;;;;;;5036651;28;20509;-75
2023/06/20 11:02:47;;;;;;;16.63;15.23;;;24.00;99.90;;;;;;5037841;28;20416;-75
2023/06/20 11:05:15;;;;;;;16.80;15.40;;;24.00;99.90;;;;;;5037889;28;20445;-75
2023/06/20 11:07:56;;;;;;;15.20;13.70;;;24.10;99.90;;;;;;5036855;28;20451;-75
2023/06/20 11:10:28;;;;;;;16.70;15.20;;;24.20;99.90;;;;;;5036402;28;20459;-75
2023/06/20 11:12:57;;;;;;;16.43;15.03;;;24.20;99.90;;;;;;5035796;28;20482;-75
2023/06/20 11:15:28;;;;;;;15.83;14.40;;;24.30;99.90;;;;;;5035427;28;20465;-75
2023/06/20 11:17:57;;;;;;;18.23;16.63;;;24.40;99.90;;;;;;5039940;28;20499;-76
2023/06/20 11:20:26;;;;;;;15.03;13.73;;;24.50;99.90;;;;;;5042200;28;20565;-75
2023/06/20 11:22:57;;;;;;;15.17;13.77;;;24.50;99.90;;;;;;5034641;28;20470;-76
2023/06/20 11:25:28;;;;;;;15.30;14.00;;;24.60;99.90;;;;;;5034475;28;20427;-76
2023/06/20 11:27:57;;;;;;;15.33;13.93;;;24.70;99.90;;;;;;5033965;28;20459;-75
2023/06/20 11:30:26;;;;;;;14.27;12.97;;;24.80;99.90;;;;;;5033961;28;20465;-76
2023/06/20 11:32:59;;;;;;;15.50;14.20;;;24.90;99.90;;;;;;5034342;28;20415;-76
2023/06/20 11:35:49;;;;;;;14.40;13.13;;;25.00;99.90;;;;;;5033580;28;21035;-75
2023/06/20 11:38:21;;;;;;;13.30;12.10;;;25.00;99.90;;;;;;5032827;28;21014;-76
2023/06/20 11:41:01;;;;;;;14.50;13.30;;;25.10;99.90;;;;;;5034063;28;20473;-75
2023/06/20 11:43:36;;;;;;;14.63;13.23;;;25.20;99.90;;;;;;5033948;28;20430;-74
2023/06/20 11:46:04;;;;;;;13.80;12.53;;;25.20;99.90;;;;;;5033849;28;20455;-74
2023/06/20 11:48:32;;;;;;;13.60;12.50;;;25.20;99.90;;;;;;5033465;28;21009;-73
2023/06/20 11:51:02;;;;;;;13.93;12.73;;;25.20;99.90;;;;;;5033471;28;20461;-74
2023/06/20 11:53:34;;;;;;;14.90;13.60;;;25.20;99.90;;;;;;5033556;28;20434;-73
2023/06/20 11:56:04;;;;;;;14.13;12.93;;;25.30;99.90;;;;;;5033851;28;20419;-74
2023/06/20 11:58:41;;;;;;;13.50;12.30;;;25.30;99.90;;;;;;5032238;28;20505;-74
2023/06/20 12:01:10;;;;;;;12.90;11.80;;;25.40;99.90;;;;;;5032101;28;20479;-74
2023/06/20 12:03:41;;;;;;;11.77;10.77;;;25.40;99.90;;;;;;5033905;28;20496;-73
2023/06/20 12:06:30;;;;;;;11.73;10.73;;;25.50;99.90;;;;;;5040920;28;20455;-74
2023/06/20 12:09:01;;;;;;;12.03;11.03;;;25.70;99.90;;;;;;5040857;28;20461;-74
2023/06/20 12:11:30;;;;;;;13.30;12.00;;;25.80;99.90;;;;;;5041824;28;20560;-74
2023/06/20 12:13:59;;;;;;;12.53;11.40;;;25.90;99.90;;;;;;5039520;28;20482;-74
2023/06/20 12:16:27;;;;;;;13.63;12.53;;;26.00;99.90;;;;;;5038447;28;20928;-74
2023/06/20 12:18:59;;;;;;;12.90;11.70;;;26.10;99.90;;;;;;5038112;28;20458;-74
2023/06/20 12:21:27;;;;;;;11.43;10.43;;;26.10;99.90;;;;;;5037585;28;20493;-74
2023/06/20 12:23:56;;;;;;;11.97;10.87;;;26.20;99.90;;;;;;5038012;28;20442;-74
2023/06/20 12:26:26;;;;;;;11.70;10.63;;;26.20;99.90;;;;;;5037362;28;20446;-74
2023/06/20 12:28:54;;;;;;;11.93;10.93;;;26.30;99.90;;;;;;5036975;28;20492;-73
2023/06/20 12:31:24;;;;;;;11.97;10.47;;;26.40;99.90;;;;;;5037682;28;20486;-75
2023/06/20 12:33:52;;;;;;;15.17;11.27;;;26.50;99.90;;;;;;5037259;28;20430;-75
2023/06/20 12:36:21;;;;;;;9.97;8.97;;;26.60;99.90;;;;;;5038493;28;20529;-75
2023/06/20 12:38:49;;;;;;;10.90;9.90;;;26.70;99.90;;;;;;5036254;28;20466;-74
2023/06/20 12:41:18;;;;;;;10.33;9.43;;;26.70;99.90;;;;;;5034487;28;20477;-74
2023/06/20 12:43:48;;;;;;;10.50;9.60;;;26.80;99.90;;;;;;5034775;28;20438;-75